sensor_id;sensor_type;location;lat;lon;timestamp;temperature;humidity
78490;DHT22;67776;52.012;4.736;2024-02-26T00:01:55;5.81;92.42
78490;DHT22;67776;52.012;4.736;2024-02-26T00:04:20;5.78;92.40
78490;DHT22;67776;52.012;4.736;2024-02-26T00:06:46;5.84;92.66
78490;DHT22;67776;52.012;4.736;2024-02-26T00:09:13;5.73;92.88
78490;DHT22;67776;52.012;4.736;2024-02-26T00:11:38;5.70;93.06
78490;DHT22;67776;52.012;4.736;2024-02-26T00:14:04;5.70;92.67
78490;DHT22;67776;52.012;4.736;2024-02-26T00:16:30;5.67;92.61
78490;DHT22;67776;52.012;4.736;2024-02-26T00:18:55;5.75;92.75
78490;DHT22;67776;52.012;4.736;2024-02-26T00:21:20;5.69;92.63
78490;DHT22;67776;52.012;4.736;2024-02-26T00:23:46;5.70;92.43
78490;DHT22;67776;52.012;4.736;2024-02-26T00:26:11;5.74;92.60
78490;DHT22;67776;52.012;4.736;2024-02-26T00:28:37;5.70;92.37
78490;DHT22;67776;52.012;4.736;2024-02-26T00:31:02;5.69;92.46
78490;DHT22;67776;52.012;4.736;2024-02-26T00:33:28;5.70;92.47
78490;DHT22;67776;52.012;4.736;2024-02-26T00:35:53;5.70;92.53
78490;DHT22;67776;52.012;4.736;2024-02-26T00:38:19;5.71;92.07
78490;DHT22;67776;52.012;4.736;2024-02-26T00:40:44;5.74;92.25
78490;DHT22;67776;52.012;4.736;2024-02-26T00:43:09;5.74;92.01
78490;DHT22;67776;52.012;4.736;2024-02-26T00:45:35;5.75;91.77
78490;DHT22;67776;52.012;4.736;2024-02-26T00:48:01;5.75;91.90
78490;DHT22;67776;52.012;4.736;2024-02-26T00:50:32;5.80;91.99
78490;DHT22;67776;52.012;4.736;2024-02-26T00:52:58;5.77;91.74
78490;DHT22;67776;52.012;4.736;2024-02-26T00:55:24;5.77;91.63
78490;DHT22;67776;52.012;4.736;2024-02-26T00:57:49;5.83;91.79
78490;DHT22;67776;52.012;4.736;2024-02-26T01:00:15;5.77;91.83
78490;DHT22;67776;52.012;4.736;2024-02-26T01:02:40;5.81;91.78
78490;DHT22;67776;52.012;4.736;2024-02-26T01:05:07;5.75;91.83
78490;DHT22;67776;52.012;4.736;2024-02-26T01:07:34;5.83;91.91
78490;DHT22;67776;52.012;4.736;2024-02-26T01:10:01;5.75;91.77
78490;DHT22;67776;52.012;4.736;2024-02-26T01:12:27;5.77;91.63
78490;DHT22;67776;52.012;4.736;2024-02-26T01:14:52;5.83;91.49
78490;DHT22;67776;52.012;4.736;2024-02-26T01:17:18;5.84;91.39
78490;DHT22;67776;52.012;4.736;2024-02-26T01:19:43;5.86;91.34
78490;DHT22;67776;52.012;4.736;2024-02-26T01:22:09;5.81;91.19
78490;DHT22;67776;52.012;4.736;2024-02-26T01:24:34;5.86;91.55
78490;DHT22;67776;52.012;4.736;2024-02-26T01:27:00;5.87;91.53
78490;DHT22;67776;52.012;4.736;2024-02-26T01:29:25;5.84;91.42
78490;DHT22;67776;52.012;4.736;2024-02-26T01:31:50;5.83;91.62
78490;DHT22;67776;52.012;4.736;2024-02-26T01:34:16;5.84;91.83
78490;DHT22;67776;52.012;4.736;2024-02-26T01:36:43;5.80;91.91
78490;DHT22;67776;52.012;4.736;2024-02-26T01:39:08;5.80;91.68
78490;DHT22;67776;52.012;4.736;2024-02-26T01:41:36;5.81;91.65
78490;DHT22;67776;52.012;4.736;2024-02-26T01:44:02;5.83;91.42
78490;DHT22;67776;52.012;4.736;2024-02-26T01:46:28;5.90;91.42
78490;DHT22;67776;52.012;4.736;2024-02-26T01:48:53;5.89;91.06
78490;DHT22;67776;52.012;4.736;2024-02-26T01:51:19;5.91;91.02
78490;DHT22;67776;52.012;4.736;2024-02-26T01:53:45;5.90;91.23
78490;DHT22;67776;52.012;4.736;2024-02-26T01:56:11;5.89;91.14
78490;DHT22;67776;52.012;4.736;2024-02-26T01:58:37;5.91;90.96
78490;DHT22;67776;52.012;4.736;2024-02-26T02:01:02;5.93;91.10
78490;DHT22;67776;52.012;4.736;2024-02-26T02:03:29;5.91;90.85
78490;DHT22;67776;52.012;4.736;2024-02-26T02:05:55;5.98;90.90
78490;DHT22;67776;52.012;4.736;2024-02-26T02:08:21;6.02;90.71
78490;DHT22;67776;52.012;4.736;2024-02-26T02:10:48;5.98;90.57
78490;DHT22;67776;52.012;4.736;2024-02-26T02:13:14;5.93;90.70
78490;DHT22;67776;52.012;4.736;2024-02-26T02:15:39;5.89;91.13
78490;DHT22;67776;52.012;4.736;2024-02-26T02:18:05;5.91;90.95
78490;DHT22;67776;52.012;4.736;2024-02-26T02:20:34;5.90;91.02
78490;DHT22;67776;52.012;4.736;2024-02-26T02:23:00;5.83;91.24
78490;DHT22;67776;52.012;4.736;2024-02-26T02:25:25;5.86;91.38
78490;DHT22;67776;52.012;4.736;2024-02-26T02:27:51;5.81;91.47
78490;DHT22;67776;52.012;4.736;2024-02-26T02:30:18;5.81;91.37
78490;DHT22;67776;52.012;4.736;2024-02-26T02:32:44;5.83;90.89
78490;DHT22;67776;52.012;4.736;2024-02-26T02:35:10;5.86;91.09
78490;DHT22;67776;52.012;4.736;2024-02-26T02:37:35;5.86;91.36
78490;DHT22;67776;52.012;4.736;2024-02-26T02:40:00;5.83;91.19
78490;DHT22;67776;52.012;4.736;2024-02-26T02:42:26;5.81;90.88
78490;DHT22;67776;52.012;4.736;2024-02-26T02:44:51;5.89;90.58
78490;DHT22;67776;52.012;4.736;2024-02-26T02:47:16;5.80;90.53
78490;DHT22;67776;52.012;4.736;2024-02-26T02:49:42;5.87;90.55
78490;DHT22;67776;52.012;4.736;2024-02-26T02:52:07;5.81;90.76
78490;DHT22;67776;52.012;4.736;2024-02-26T02:54:32;5.80;91.17
78490;DHT22;67776;52.012;4.736;2024-02-26T02:56:58;5.75;91.11
78490;DHT22;67776;52.012;4.736;2024-02-26T02:59:23;5.78;91.06
78490;DHT22;67776;52.012;4.736;2024-02-26T03:01:48;5.83;90.99
78490;DHT22;67776;52.012;4.736;2024-02-26T03:04:14;5.75;90.90
78490;DHT22;67776;52.012;4.736;2024-02-26T03:06:39;5.77;90.71
78490;DHT22;67776;52.012;4.736;2024-02-26T03:09:05;5.74;91.45
78490;DHT22;67776;52.012;4.736;2024-02-26T03:11:30;5.73;90.82
78490;DHT22;67776;52.012;4.736;2024-02-26T03:13:55;5.74;91.16
78490;DHT22;67776;52.012;4.736;2024-02-26T03:16:21;5.70;91.16
78490;DHT22;67776;52.012;4.736;2024-02-26T03:18:46;5.69;92.09
78490;DHT22;67776;52.012;4.736;2024-02-26T03:21:11;5.60;92.05
78490;DHT22;67776;52.012;4.736;2024-02-26T03:23:37;5.59;91.53
78490;DHT22;67776;52.012;4.736;2024-02-26T03:26:05;5.62;92.67
78490;DHT22;67776;52.012;4.736;2024-02-26T03:28:31;5.69;91.78
78490;DHT22;67776;52.012;4.736;2024-02-26T03:30:59;5.67;91.57
78490;DHT22;67776;52.012;4.736;2024-02-26T03:33:24;5.66;91.42
78490;DHT22;67776;52.012;4.736;2024-02-26T03:35:49;5.69;91.52
78490;DHT22;67776;52.012;4.736;2024-02-26T03:38:15;5.69;91.49
78490;DHT22;67776;52.012;4.736;2024-02-26T03:40:40;5.67;91.30
78490;DHT22;67776;52.012;4.736;2024-02-26T03:43:05;5.69;91.52
78490;DHT22;67776;52.012;4.736;2024-02-26T03:45:32;5.70;91.51
78490;DHT22;67776;52.012;4.736;2024-02-26T03:47:58;5.70;91.52
78490;DHT22;67776;52.012;4.736;2024-02-26T03:50:23;5.66;91.86
78490;DHT22;67776;52.012;4.736;2024-02-26T03:52:49;5.66;91.69
78490;DHT22;67776;52.012;4.736;2024-02-26T03:55:14;5.70;91.29
78490;DHT22;67776;52.012;4.736;2024-02-26T03:57:39;5.75;91.19
78490;DHT22;67776;52.012;4.736;2024-02-26T04:00:05;5.74;91.08
78490;DHT22;67776;52.012;4.736;2024-02-26T04:02:31;5.71;91.00
78490;DHT22;67776;52.012;4.736;2024-02-26T04:04:56;5.75;90.77
78490;DHT22;67776;52.012;4.736;2024-02-26T04:07:22;5.71;90.91
78490;DHT22;67776;52.012;4.736;2024-02-26T04:09:47;5.71;90.82
78490;DHT22;67776;52.012;4.736;2024-02-26T04:12:12;5.71;91.01
78490;DHT22;67776;52.012;4.736;2024-02-26T04:14:38;5.71;90.87
78490;DHT22;67776;52.012;4.736;2024-02-26T04:17:04;5.73;90.98
78490;DHT22;67776;52.012;4.736;2024-02-26T04:19:29;5.75;90.56
78490;DHT22;67776;52.012;4.736;2024-02-26T04:21:54;5.67;90.65
78490;DHT22;67776;52.012;4.736;2024-02-26T04:24:20;5.66;90.94
78490;DHT22;67776;52.012;4.736;2024-02-26T04:26:45;5.67;91.11
78490;DHT22;67776;52.012;4.736;2024-02-26T04:29:10;5.66;91.20
78490;DHT22;67776;52.012;4.736;2024-02-26T04:31:37;5.63;90.90
78490;DHT22;67776;52.012;4.736;2024-02-26T04:34:02;5.64;91.54
78490;DHT22;67776;52.012;4.736;2024-02-26T04:36:28;5.57;91.83
78490;DHT22;67776;52.012;4.736;2024-02-26T04:38:53;5.57;91.77
78490;DHT22;67776;52.012;4.736;2024-02-26T04:41:21;5.59;91.78
78490;DHT22;67776;52.012;4.736;2024-02-26T04:43:46;5.60;92.06
78490;DHT22;67776;52.012;4.736;2024-02-26T04:46:11;5.62;91.72
78490;DHT22;67776;52.012;4.736;2024-02-26T04:48:37;5.57;91.94
78490;DHT22;67776;52.012;4.736;2024-02-26T04:51:03;5.54;92.10
78490;DHT22;67776;52.012;4.736;2024-02-26T04:53:29;5.60;91.91
78490;DHT22;67776;52.012;4.736;2024-02-26T04:55:54;5.54;92.12
78490;DHT22;67776;52.012;4.736;2024-02-26T04:58:19;5.54;92.07
78490;DHT22;67776;52.012;4.736;2024-02-26T05:00:45;5.54;91.81
78490;DHT22;67776;52.012;4.736;2024-02-26T05:03:10;5.54;92.11
78490;DHT22;67776;52.012;4.736;2024-02-26T05:05:40;5.56;91.86
78490;DHT22;67776;52.012;4.736;2024-02-26T05:08:06;5.64;91.67
78490;DHT22;67776;52.012;4.736;2024-02-26T05:10:32;5.60;91.70
78490;DHT22;67776;52.012;4.736;2024-02-26T05:12:58;5.63;91.61
78490;DHT22;67776;52.012;4.736;2024-02-26T05:15:23;5.59;91.51
78490;DHT22;67776;52.012;4.736;2024-02-26T05:17:48;5.57;91.57
78490;DHT22;67776;52.012;4.736;2024-02-26T05:20:14;5.59;91.60
78490;DHT22;67776;52.012;4.736;2024-02-26T05:22:39;5.54;92.12
78490;DHT22;67776;52.012;4.736;2024-02-26T05:25:05;5.53;91.69
78490;DHT22;67776;52.012;4.736;2024-02-26T05:27:30;5.56;91.72
78490;DHT22;67776;52.012;4.736;2024-02-26T05:29:55;5.59;91.66
78490;DHT22;67776;52.012;4.736;2024-02-26T05:32:21;5.53;92.11
78490;DHT22;67776;52.012;4.736;2024-02-26T05:34:47;5.52;91.77
78490;DHT22;67776;52.012;4.736;2024-02-26T05:37:12;5.53;91.55
78490;DHT22;67776;52.012;4.736;2024-02-26T05:39:37;5.56;91.78
78490;DHT22;67776;52.012;4.736;2024-02-26T05:42:03;5.57;91.61
78490;DHT22;67776;52.012;4.736;2024-02-26T05:44:28;5.54;91.71
78490;DHT22;67776;52.012;4.736;2024-02-26T05:46:54;5.57;91.53
78490;DHT22;67776;52.012;4.736;2024-02-26T05:49:19;5.53;91.57
78490;DHT22;67776;52.012;4.736;2024-02-26T05:51:45;5.54;91.44
78490;DHT22;67776;52.012;4.736;2024-02-26T05:54:10;5.54;91.41
78490;DHT22;67776;52.012;4.736;2024-02-26T05:56:36;5.54;91.66
78490;DHT22;67776;52.012;4.736;2024-02-26T05:59:01;5.54;91.42
78490;DHT22;67776;52.012;4.736;2024-02-26T06:01:26;5.49;91.88
78490;DHT22;67776;52.012;4.736;2024-02-26T06:03:51;5.47;91.40
78490;DHT22;67776;52.012;4.736;2024-02-26T06:06:17;5.50;91.84
78490;DHT22;67776;52.012;4.736;2024-02-26T06:08:43;5.47;91.85
78490;DHT22;67776;52.012;4.736;2024-02-26T06:11:08;5.45;91.85
78490;DHT22;67776;52.012;4.736;2024-02-26T06:13:35;5.46;92.07
78490;DHT22;67776;52.012;4.736;2024-02-26T06:16:00;5.43;92.13
78490;DHT22;67776;52.012;4.736;2024-02-26T06:18:25;5.42;91.96
78490;DHT22;67776;52.012;4.736;2024-02-26T06:20:51;5.43;92.12
78490;DHT22;67776;52.012;4.736;2024-02-26T06:23:16;5.42;92.46
78490;DHT22;67776;52.012;4.736;2024-02-26T06:25:41;5.40;92.36
78490;DHT22;67776;52.012;4.736;2024-02-26T06:28:08;5.40;92.34
78490;DHT22;67776;52.012;4.736;2024-02-26T06:30:33;5.49;92.36
78490;DHT22;67776;52.012;4.736;2024-02-26T06:32:59;5.40;92.69
78490;DHT22;67776;52.012;4.736;2024-02-26T06:35:24;5.40;92.63
78490;DHT22;67776;52.012;4.736;2024-02-26T06:37:49;5.43;92.68
78490;DHT22;67776;52.012;4.736;2024-02-26T06:40:18;5.45;92.59
78490;DHT22;67776;52.012;4.736;2024-02-26T06:42:43;5.46;92.48
78490;DHT22;67776;52.012;4.736;2024-02-26T06:45:09;5.47;92.30
78490;DHT22;67776;52.012;4.736;2024-02-26T06:47:34;5.47;92.56
78490;DHT22;67776;52.012;4.736;2024-02-26T06:50:00;5.53;92.50
78490;DHT22;67776;52.012;4.736;2024-02-26T06:52:26;5.50;92.84
78490;DHT22;67776;52.012;4.736;2024-02-26T06:54:51;5.47;92.42
78490;DHT22;67776;52.012;4.736;2024-02-26T06:57:20;5.54;92.43
78490;DHT22;67776;52.012;4.736;2024-02-26T06:59:46;5.49;92.29
78490;DHT22;67776;52.012;4.736;2024-02-26T07:02:15;5.49;92.63
78490;DHT22;67776;52.012;4.736;2024-02-26T07:04:41;5.50;92.48
78490;DHT22;67776;52.012;4.736;2024-02-26T07:07:07;5.52;93.09
78490;DHT22;67776;52.012;4.736;2024-02-26T07:09:33;5.53;92.82
78490;DHT22;67776;52.012;4.736;2024-02-26T07:11:58;5.54;92.93
78490;DHT22;67776;52.012;4.736;2024-02-26T07:14:23;5.56;93.02
78490;DHT22;67776;52.012;4.736;2024-02-26T07:16:50;5.46;93.67
78490;DHT22;67776;52.012;4.736;2024-02-26T07:19:15;5.53;93.70
78490;DHT22;67776;52.012;4.736;2024-02-26T07:21:40;5.45;94.47
78490;DHT22;67776;52.012;4.736;2024-02-26T07:24:06;5.42;94.58
78490;DHT22;67776;52.012;4.736;2024-02-26T07:26:31;5.42;94.88
78490;DHT22;67776;52.012;4.736;2024-02-26T07:28:57;5.42;94.78
78490;DHT22;67776;52.012;4.736;2024-02-26T07:31:22;5.39;94.98
78490;DHT22;67776;52.012;4.736;2024-02-26T07:33:48;5.34;94.90
78490;DHT22;67776;52.012;4.736;2024-02-26T07:36:13;5.38;94.82
78490;DHT22;67776;52.012;4.736;2024-02-26T07:38:38;5.32;94.88
78490;DHT22;67776;52.012;4.736;2024-02-26T07:41:04;5.34;94.94
78490;DHT22;67776;52.012;4.736;2024-02-26T07:43:30;5.34;94.99
78490;DHT22;67776;52.012;4.736;2024-02-26T07:45:55;5.31;94.69
78490;DHT22;67776;52.012;4.736;2024-02-26T07:48:20;5.34;94.39
78490;DHT22;67776;52.012;4.736;2024-02-26T07:50:46;5.32;94.95
78490;DHT22;67776;52.012;4.736;2024-02-26T07:53:11;5.32;94.98
78490;DHT22;67776;52.012;4.736;2024-02-26T07:55:36;5.34;94.96
78490;DHT22;67776;52.012;4.736;2024-02-26T07:58:02;5.34;95.25
78490;DHT22;67776;52.012;4.736;2024-02-26T08:00:27;5.29;95.09
78490;DHT22;67776;52.012;4.736;2024-02-26T08:02:53;5.42;95.04
78490;DHT22;67776;52.012;4.736;2024-02-26T08:05:18;5.42;94.63
78490;DHT22;67776;52.012;4.736;2024-02-26T08:07:44;5.38;94.87
78490;DHT22;67776;52.012;4.736;2024-02-26T08:10:09;5.32;94.66
78490;DHT22;67776;52.012;4.736;2024-02-26T08:12:36;5.31;94.76
78490;DHT22;67776;52.012;4.736;2024-02-26T08:15:01;5.29;95.01
78490;DHT22;67776;52.012;4.736;2024-02-26T08:17:26;5.35;95.12
78490;DHT22;67776;52.012;4.736;2024-02-26T08:19:52;5.34;94.58
78490;DHT22;67776;52.012;4.736;2024-02-26T08:22:18;5.35;94.47
78490;DHT22;67776;52.012;4.736;2024-02-26T08:24:43;5.32;95.00
78490;DHT22;67776;52.012;4.736;2024-02-26T08:27:09;5.34;95.03
78490;DHT22;67776;52.012;4.736;2024-02-26T08:29:34;5.31;94.44
78490;DHT22;67776;52.012;4.736;2024-02-26T08:32:00;5.34;95.09
78490;DHT22;67776;52.012;4.736;2024-02-26T08:34:26;5.31;94.56
78490;DHT22;67776;52.012;4.736;2024-02-26T08:36:51;5.31;94.77
78490;DHT22;67776;52.012;4.736;2024-02-26T08:39:17;5.32;94.70
78490;DHT22;67776;52.012;4.736;2024-02-26T08:41:43;5.32;94.48
78490;DHT22;67776;52.012;4.736;2024-02-26T08:44:09;5.28;94.60
78490;DHT22;67776;52.012;4.736;2024-02-26T08:46:34;5.32;94.37
78490;DHT22;67776;52.012;4.736;2024-02-26T08:48:59;5.40;94.44
78490;DHT22;67776;52.012;4.736;2024-02-26T08:51:25;5.42;93.96
78490;DHT22;67776;52.012;4.736;2024-02-26T08:53:50;5.40;94.27
78490;DHT22;67776;52.012;4.736;2024-02-26T08:56:16;5.38;94.53
78490;DHT22;67776;52.012;4.736;2024-02-26T08:58:43;5.39;93.88
78490;DHT22;67776;52.012;4.736;2024-02-26T09:01:08;5.36;94.02
78490;DHT22;67776;52.012;4.736;2024-02-26T09:03:34;5.38;93.72
78490;DHT22;67776;52.012;4.736;2024-02-26T09:05:59;5.40;94.45
78490;DHT22;67776;52.012;4.736;2024-02-26T09:08:24;5.39;94.03
78490;DHT22;67776;52.012;4.736;2024-02-26T09:10:50;5.43;93.54
78490;DHT22;67776;52.012;4.736;2024-02-26T09:13:15;5.43;93.93
78490;DHT22;67776;52.012;4.736;2024-02-26T09:15:40;5.36;93.97
78490;DHT22;67776;52.012;4.736;2024-02-26T09:18:06;5.36;93.18
78490;DHT22;67776;52.012;4.736;2024-02-26T09:20:31;5.38;93.33
78490;DHT22;67776;52.012;4.736;2024-02-26T09:22:56;5.40;93.35
78490;DHT22;67776;52.012;4.736;2024-02-26T09:25:22;5.43;93.92
78490;DHT22;67776;52.012;4.736;2024-02-26T09:27:47;5.52;93.24
78490;DHT22;67776;52.012;4.736;2024-02-26T09:30:13;5.57;93.43
78490;DHT22;67776;52.012;4.736;2024-02-26T09:32:39;5.60;93.68
78490;DHT22;67776;52.012;4.736;2024-02-26T09:35:08;5.62;93.65
78490;DHT22;67776;52.012;4.736;2024-02-26T09:37:33;5.57;93.75
78490;DHT22;67776;52.012;4.736;2024-02-26T09:39:59;5.52;92.74
78490;DHT22;67776;52.012;4.736;2024-02-26T09:42:26;5.59;93.73
78490;DHT22;67776;52.012;4.736;2024-02-26T09:44:54;5.64;93.17
78490;DHT22;67776;52.012;4.736;2024-02-26T09:47:21;5.64;93.24
78490;DHT22;67776;52.012;4.736;2024-02-26T09:49:48;5.60;93.58
78490;DHT22;67776;52.012;4.736;2024-02-26T09:52:15;5.62;93.49
78490;DHT22;67776;52.012;4.736;2024-02-26T09:54:41;5.66;93.82
78490;DHT22;67776;52.012;4.736;2024-02-26T09:57:09;5.59;93.72
78490;DHT22;67776;52.012;4.736;2024-02-26T09:59:41;5.57;93.29
78490;DHT22;67776;52.012;4.736;2024-02-26T10:02:12;5.54;93.92
78490;DHT22;67776;52.012;4.736;2024-02-26T10:04:42;5.49;93.61
78490;DHT22;67776;52.012;4.736;2024-02-26T10:07:11;5.50;94.17
78490;DHT22;67776;52.012;4.736;2024-02-26T10:09:37;5.52;94.64
78490;DHT22;67776;52.012;4.736;2024-02-26T10:12:09;5.52;94.97
78490;DHT22;67776;52.012;4.736;2024-02-26T10:14:35;5.46;95.13
78490;DHT22;67776;52.012;4.736;2024-02-26T10:17:01;5.49;95.20
78490;DHT22;67776;52.012;4.736;2024-02-26T10:19:29;5.43;95.67
78490;DHT22;67776;52.012;4.736;2024-02-26T10:21:59;5.46;95.27
78490;DHT22;67776;52.012;4.736;2024-02-26T10:24:26;5.49;95.64
78490;DHT22;67776;52.012;4.736;2024-02-26T10:26:52;5.49;96.18
78490;DHT22;67776;52.012;4.736;2024-02-26T10:29:19;5.50;96.48
78490;DHT22;67776;52.012;4.736;2024-02-26T10:31:45;5.46;95.99
78490;DHT22;67776;52.012;4.736;2024-02-26T10:34:10;5.50;96.30
78490;DHT22;67776;52.012;4.736;2024-02-26T10:36:36;5.52;95.78
78490;DHT22;67776;52.012;4.736;2024-02-26T10:39:03;5.62;96.32
78490;DHT22;67776;52.012;4.736;2024-02-26T10:41:29;5.54;95.94
78490;DHT22;67776;52.012;4.736;2024-02-26T10:43:55;5.64;96.10
78490;DHT22;67776;52.012;4.736;2024-02-26T10:46:20;5.70;96.13
78490;DHT22;67776;52.012;4.736;2024-02-26T10:48:52;5.69;95.94
78490;DHT22;67776;52.012;4.736;2024-02-26T10:51:28;5.77;96.31
78490;DHT22;67776;52.012;4.736;2024-02-26T10:53:58;5.69;96.06
78490;DHT22;67776;52.012;4.736;2024-02-26T10:56:26;5.62;95.82
78490;DHT22;67776;52.012;4.736;2024-02-26T10:58:55;5.66;96.53
78490;DHT22;67776;52.012;4.736;2024-02-26T11:01:21;5.63;96.49
78490;DHT22;67776;52.012;4.736;2024-02-26T11:03:52;5.73;96.68
78490;DHT22;67776;52.012;4.736;2024-02-26T11:06:19;5.74;96.77
78490;DHT22;67776;52.012;4.736;2024-02-26T11:08:48;5.64;96.98
78490;DHT22;67776;52.012;4.736;2024-02-26T11:11:14;5.71;97.05
78490;DHT22;67776;52.012;4.736;2024-02-26T11:13:42;5.74;96.97
78490;DHT22;67776;52.012;4.736;2024-02-26T11:16:11;5.67;96.66
78490;DHT22;67776;52.012;4.736;2024-02-26T11:18:37;5.69;97.01
78490;DHT22;67776;52.012;4.736;2024-02-26T11:21:05;5.56;97.07
78490;DHT22;67776;52.012;4.736;2024-02-26T11:23:33;5.53;97.39
78490;DHT22;67776;52.012;4.736;2024-02-26T11:26:02;5.63;97.55
78490;DHT22;67776;52.012;4.736;2024-02-26T11:28:29;5.64;97.16
78490;DHT22;67776;52.012;4.736;2024-02-26T11:30:57;5.63;96.73
78490;DHT22;67776;52.012;4.736;2024-02-26T11:33:24;5.69;97.62
78490;DHT22;67776;52.012;4.736;2024-02-26T11:35:50;5.73;96.79
78490;DHT22;67776;52.012;4.736;2024-02-26T11:38:24;5.84;97.12
78490;DHT22;67776;52.012;4.736;2024-02-26T11:40:50;5.70;96.98
78490;DHT22;67776;52.012;4.736;2024-02-26T11:43:15;5.74;96.29
78490;DHT22;67776;52.012;4.736;2024-02-26T11:48:14;5.77;96.60
78490;DHT22;67776;52.012;4.736;2024-02-26T11:50:41;5.81;96.51
78490;DHT22;67776;52.012;4.736;2024-02-26T11:55:44;5.80;96.82
78490;DHT22;67776;52.012;4.736;2024-02-26T11:58:10;5.86;97.05
78490;DHT22;67776;52.012;4.736;2024-02-26T12:00:35;5.90;96.55
78490;DHT22;67776;52.012;4.736;2024-02-26T12:03:00;6.11;96.30
78490;DHT22;67776;52.012;4.736;2024-02-26T12:05:31;6.09;96.15
78490;DHT22;67776;52.012;4.736;2024-02-26T12:08:01;6.01;96.10
78490;DHT22;67776;52.012;4.736;2024-02-26T12:10:38;6.17;96.31
78490;DHT22;67776;52.012;4.736;2024-02-26T12:13:11;6.12;95.44
78490;DHT22;67776;52.012;4.736;2024-02-26T12:15:45;6.17;95.82
78490;DHT22;67776;52.012;4.736;2024-02-26T12:18:15;6.11;95.79
78490;DHT22;67776;52.012;4.736;2024-02-26T12:20:42;6.07;95.91
78490;DHT22;67776;52.012;4.736;2024-02-26T12:23:14;6.21;95.68
78490;DHT22;67776;52.012;4.736;2024-02-26T12:25:39;6.11;95.21
78490;DHT22;67776;52.012;4.736;2024-02-26T12:28:04;6.11;96.06
78490;DHT22;67776;52.012;4.736;2024-02-26T12:30:30;6.29;95.64
78490;DHT22;67776;52.012;4.736;2024-02-26T12:32:56;6.24;95.72
78490;DHT22;67776;52.012;4.736;2024-02-26T12:35:23;6.21;95.53
78490;DHT22;67776;52.012;4.736;2024-02-26T12:37:49;6.33;96.04
78490;DHT22;67776;52.012;4.736;2024-02-26T12:40:17;6.36;94.95
78490;DHT22;67776;52.012;4.736;2024-02-26T12:42:42;6.37;94.82
78490;DHT22;67776;52.012;4.736;2024-02-26T12:45:11;6.37;94.19
78490;DHT22;67776;52.012;4.736;2024-02-26T12:47:44;6.45;94.74
78490;DHT22;67776;52.012;4.736;2024-02-26T12:50:14;6.43;94.64
78490;DHT22;67776;52.012;4.736;2024-02-26T12:52:45;6.56;94.82
78490;DHT22;67776;52.012;4.736;2024-02-26T12:55:14;6.46;94.27
78490;DHT22;67776;52.012;4.736;2024-02-26T12:57:41;6.35;94.45
78490;DHT22;67776;52.012;4.736;2024-02-26T13:00:12;6.40;94.21
78490;DHT22;67776;52.012;4.736;2024-02-26T13:02:38;6.36;94.08
78490;DHT22;67776;52.012;4.736;2024-02-26T13:05:05;6.42;94.65
78490;DHT22;67776;52.012;4.736;2024-02-26T13:07:32;6.53;94.06
78490;DHT22;67776;52.012;4.736;2024-02-26T13:09:58;6.69;93.85
78490;DHT22;67776;52.012;4.736;2024-02-26T13:12:24;6.63;93.55
78490;DHT22;67776;52.012;4.736;2024-02-26T13:15:07;6.57;92.87
78490;DHT22;67776;52.012;4.736;2024-02-26T13:17:34;6.58;92.13
78490;DHT22;67776;52.012;4.736;2024-02-26T13:20:00;6.64;92.05
78490;DHT22;67776;52.012;4.736;2024-02-26T13:22:25;6.77;92.14
78490;DHT22;67776;52.012;4.736;2024-02-26T13:24:57;6.76;93.19
78490;DHT22;67776;52.012;4.736;2024-02-26T13:27:23;6.81;92.25
78490;DHT22;67776;52.012;4.736;2024-02-26T13:30:01;6.76;92.79
78490;DHT22;67776;52.012;4.736;2024-02-26T13:32:27;6.77;92.04
78490;DHT22;67776;52.012;4.736;2024-02-26T13:37:33;6.95;91.56
78490;DHT22;67776;52.012;4.736;2024-02-26T13:39:58;6.90;91.31
78490;DHT22;67776;52.012;4.736;2024-02-26T13:42:23;6.92;90.98
78490;DHT22;67776;52.012;4.736;2024-02-26T13:44:49;6.92;91.03
78490;DHT22;67776;52.012;4.736;2024-02-26T13:47:14;6.95;91.30
78490;DHT22;67776;52.012;4.736;2024-02-26T13:49:39;6.88;91.71
78490;DHT22;67776;52.012;4.736;2024-02-26T13:52:05;6.88;91.20
78490;DHT22;67776;52.012;4.736;2024-02-26T13:54:30;7.09;91.00
78490;DHT22;67776;52.012;4.736;2024-02-26T13:56:56;6.94;89.61
78490;DHT22;67776;52.012;4.736;2024-02-26T13:59:21;6.85;90.24
78490;DHT22;67776;52.012;4.736;2024-02-26T14:01:46;6.81;90.43
78490;DHT22;67776;52.012;4.736;2024-02-26T14:04:11;6.91;90.84
78490;DHT22;67776;52.012;4.736;2024-02-26T14:06:37;6.83;90.27
78490;DHT22;67776;52.012;4.736;2024-02-26T14:09:02;6.83;91.58
78490;DHT22;67776;52.012;4.736;2024-02-26T14:11:29;6.88;91.28
78490;DHT22;67776;52.012;4.736;2024-02-26T14:13:54;6.92;90.46
78490;DHT22;67776;52.012;4.736;2024-02-26T14:16:19;7.00;90.22
78490;DHT22;67776;52.012;4.736;2024-02-26T14:18:45;6.84;90.15
78490;DHT22;67776;52.012;4.736;2024-02-26T14:21:11;6.83;89.95
78490;DHT22;67776;52.012;4.736;2024-02-26T14:23:37;6.90;90.47
78490;DHT22;67776;52.012;4.736;2024-02-26T14:26:02;6.84;90.21
78490;DHT22;67776;52.012;4.736;2024-02-26T14:28:29;6.88;90.03
78490;DHT22;67776;52.012;4.736;2024-02-26T14:30:54;6.85;89.93
78490;DHT22;67776;52.012;4.736;2024-02-26T14:33:20;6.81;90.69
78490;DHT22;67776;52.012;4.736;2024-02-26T14:35:45;7.01;90.98
78490;DHT22;67776;52.012;4.736;2024-02-26T14:38:10;6.85;90.51
78490;DHT22;67776;52.012;4.736;2024-02-26T14:40:37;6.87;90.15
78490;DHT22;67776;52.012;4.736;2024-02-26T14:43:02;6.84;90.19
78490;DHT22;67776;52.012;4.736;2024-02-26T14:45:29;6.88;90.60
78490;DHT22;67776;52.012;4.736;2024-02-26T14:47:54;6.90;89.42
78490;DHT22;67776;52.012;4.736;2024-02-26T14:50:20;6.88;90.04
78490;DHT22;67776;52.012;4.736;2024-02-26T14:52:45;6.88;90.08
78490;DHT22;67776;52.012;4.736;2024-02-26T14:55:10;6.94;89.64
78490;DHT22;67776;52.012;4.736;2024-02-26T14:57:36;6.83;90.02
78490;DHT22;67776;52.012;4.736;2024-02-26T15:00:01;6.81;90.23
78490;DHT22;67776;52.012;4.736;2024-02-26T15:02:28;6.98;90.00
78490;DHT22;67776;52.012;4.736;2024-02-26T15:04:53;6.84;90.62
78490;DHT22;67776;52.012;4.736;2024-02-26T15:07:19;6.80;89.49
78490;DHT22;67776;52.012;4.736;2024-02-26T15:09:45;6.85;89.46
78490;DHT22;67776;52.012;4.736;2024-02-26T15:12:11;6.79;90.02
78490;DHT22;67776;52.012;4.736;2024-02-26T15:14:36;6.67;89.64
78490;DHT22;67776;52.012;4.736;2024-02-26T15:17:02;6.72;89.91
78490;DHT22;67776;52.012;4.736;2024-02-26T15:19:28;6.79;89.30
78490;DHT22;67776;52.012;4.736;2024-02-26T15:21:53;6.77;89.60
78490;DHT22;67776;52.012;4.736;2024-02-26T15:24:18;6.88;89.58
78490;DHT22;67776;52.012;4.736;2024-02-26T15:26:45;6.83;89.24
78490;DHT22;67776;52.012;4.736;2024-02-26T15:29:11;6.73;89.34
78490;DHT22;67776;52.012;4.736;2024-02-26T15:31:37;6.69;90.57
78490;DHT22;67776;52.012;4.736;2024-02-26T15:34:03;6.64;90.62
78490;DHT22;67776;52.012;4.736;2024-02-26T15:36:28;6.63;89.99
78490;DHT22;67776;52.012;4.736;2024-02-26T15:38:53;6.69;90.13
78490;DHT22;67776;52.012;4.736;2024-02-26T15:41:19;6.64;90.27
78490;DHT22;67776;52.012;4.736;2024-02-26T15:43:44;6.63;91.03
78490;DHT22;67776;52.012;4.736;2024-02-26T15:46:09;6.49;91.03